Airfield :
LOGIN :

Register | Disclaimer

   EN    FR    IT 

 










Legend :    VFR   Marginal VFR   IFR   Intensive IFR   Very Intensive IFR
Visi :
Ceiling :
>= 8 km
>= 3000ft
5 to 8 km
1000 to 3000 ft
1500m to 5 km
500 to 1000 ft
800 to 1500m
200 to 500 ft
< 800m
< 200 ft
Symbols :   Thunderstorms  Fog  Heavy snow  Heavy precipitations  Wind > 20 kt
SIGMETs :     Misc.  Thunderstorms  Icing  Turbulence  Mountain Waves  Volcanic Ashes







- Airport Elevation : 2356 ft


LZTT - Poprad Tatry

CURRENT METAR :
  • 160630Z 26016KT 9999 SCT053 18/12 Q1013 NOSIG

EXPIRED METARs :
  • 160600Z 27011KT 9999 FEW026 SCT056 18/11 Q1014 NOSIG
  • 160530Z 27011KT 9999 FEW026 BKN053 17/11 Q1014 NOSIG
  • 160500Z 28013KT 9999 FEW020 SCT050 16/10 Q1014 NOSIG
  • 160430Z 27012KT 9999 FEW050 SCT063 15/10 Q1014 NOSIG
  • 160400Z 29006KT 260V340 9999 FEW053 SCT063 15/10 Q1014

TAF TAF LZTT
Valid from the 16 at 06:00 until the 17 at 06:00 UTC


160500Z 1606/1706 29012KT 9999 FEW050 SCT080
TEMPO 1609/1617 SHRA FEW045TCU BKN060
PROB40
TEMPO 1610/1616 -TSRA BKN040 FEW050CB
BECMG 1616/1618 26007KT
BECMG 1620/1622 CAVOK
No reported NOTAMs for that airfield.



MET'MAP, your aeronautical weather chart ! - Copyright ORBIFLY December 2007 - Disclaimer

ORBIFLY MET'MAP TEAM :

Programming & Development : Alexandra Zaïnal
Concept & Development : Baudouin d'Aumeries
Co-Development & Prog : Marc-Olivier Méhu
Technical & hardware support : Manuel Goepfert

Contact : metmap@orbifly.com




SOURCES & CREDITS :

   NOAA